»·PEaware :: N1510Q KBUR-KLAS

N1510Q :: KBUR-KLAS

FLIGHT INFORMATION

Flight Status: Arrived
Operator: Privately registered:
United States
More flights under this callsign
Pilot: Todd H. (25818)
Aircraft: BEECH AIRCRAFT BEECH AIRLINER
(B190)
More flights by this aircraft type
Origin: KBUR Bob Hope-Burbank
United States
Destination: KLAS McCarran Intl
United States
More flights between these airports :: More routes between these airports
Route: VNY3 DAG CRESO4
File this flight plan on PilotEdge
Remarks:
Altitude:
(Current/Filed)
9,000ft
Speed:
(Current/Filed)
210kts
Departed: 09-Jan-21 02:52 PM
Arrived: 09-Jan-21 03:56 PM
Distance/Time
Traveled:
193nm/1:04
Distance/Time
To Go:
Arrived

Flight Plot

Page will automatically refresh every two minutes.

Flight plan parsing failed; only flown route is shown


Map Options




Map Legend


Flown Route
Filed Route
Departure Airport
Arrival Airport
Navaid (VOR, NDB)
Fix

Horizontal Profiles

Position Reports

Time Latitude Longitude Heading Altitude Ground
Speed
09-Jan-21 14:36 34.200202 -118.358812 280 722ft 0kts
09-Jan-21 14:37 34.200202 -118.358812 280 722ft 0kts
09-Jan-21 14:38 34.200202 -118.358812 280 722ft 0kts
09-Jan-21 14:39 34.200202 -118.358812 280 722ft 0kts
09-Jan-21 14:40 34.200202 -118.358812 280 722ft 0kts
09-Jan-21 14:41 34.200202 -118.358812 280 722ft 0kts
09-Jan-21 14:42 34.200202 -118.358812 280 722ft 0kts
09-Jan-21 14:43 34.200203 -118.358821 272 722ft 0kts
09-Jan-21 14:44 34.199814 -118.358205 14 720ft 6kts
09-Jan-21 14:45 34.202305 -118.358869 347 731ft 9kts
09-Jan-21 14:46 34.204882 -118.359584 347 739ft 21kts
09-Jan-21 14:47 34.209592 -118.360882 348 761ft 14kts
09-Jan-21 14:48 34.211607 -118.361218 55 769ft 0kts
09-Jan-21 14:49 34.211607 -118.361218 55 769ft 0kts
09-Jan-21 14:50 34.211453 -118.360162 173 766ft 15kts
09-Jan-21 14:51 34.176879 -118.357618 213 2012ft 184kts
09-Jan-21 14:52 34.139842 -118.403445 225 4057ft 197kts
09-Jan-21 14:53 34.105105 -118.461326 276 4113ft 234kts
09-Jan-21 14:54 34.151133 -118.492703 352 5859ft 190kts
09-Jan-21 14:55 34.204136 -118.504033 0 8102ft 192kts
09-Jan-21 14:56 34.259439 -118.491673 10 9124ft 230kts
09-Jan-21 14:57 34.326352 -118.475890 10 9130ft 253kts
09-Jan-21 14:58 34.393962 -118.458587 25 9128ft 247kts
09-Jan-21 14:59 34.426583 -118.391880 51 9153ft 218kts
09-Jan-21 15:00 34.462299 -118.334359 49 9188ft 221kts
09-Jan-21 15:01 34.501642 -118.271601 50 9219ft 240kts
09-Jan-21 15:02 34.542425 -118.206397 50 9243ft 243kts
09-Jan-21 15:03 34.583398 -118.140782 50 9231ft 245kts
09-Jan-21 15:04 34.625055 -118.073672 55 8986ft 250kts
09-Jan-21 15:05 34.639001 -117.991642 79 8987ft 243kts
09-Jan-21 15:06 34.648095 -117.910874 79 8986ft 240kts
09-Jan-21 15:07 34.656854 -117.830571 79 8985ft 239kts
09-Jan-21 15:08 34.667735 -117.751175 70 8989ft 237kts
09-Jan-21 15:09 34.687074 -117.674298 69 8993ft 238kts
09-Jan-21 15:10 34.706809 -117.597105 69 8998ft 238kts
09-Jan-21 15:11 34.726502 -117.520018 69 8999ft 239kts
09-Jan-21 15:12 34.746174 -117.442775 69 8999ft 239kts
09-Jan-21 15:13 34.765903 -117.365084 69 8999ft 239kts
09-Jan-21 15:14 34.785446 -117.287909 70 8998ft 239kts
09-Jan-21 15:15 34.805024 -117.210367 70 8998ft 238kts
09-Jan-21 15:16 34.824534 -117.132863 70 8998ft 237kts
09-Jan-21 15:17 34.843890 -117.055452 69 8998ft 234kts
09-Jan-21 15:18 34.861984 -116.982936 68 8996ft 214kts
09-Jan-21 15:19 34.879058 -116.914573 67 8996ft 207kts
09-Jan-21 15:20 34.895829 -116.847504 66 9008ft 207kts
09-Jan-21 15:21 34.913041 -116.778426 67 9006ft 215kts
09-Jan-21 15:22 34.930438 -116.708099 67 9006ft 216kts
09-Jan-21 15:23 34.947910 -116.637340 68 9005ft 217kts
09-Jan-21 15:24 34.967585 -116.567999 58 9005ft 214kts
09-Jan-21 15:25 34.993352 -116.508571 55 10177ft 173kts
09-Jan-21 15:26 35.020301 -116.448420 57 11009ft 239kts
09-Jan-21 15:27 35.053050 -116.374169 57 10993ft 243kts
09-Jan-21 15:28 35.083913 -116.304303 57 10995ft 223kts
09-Jan-21 15:30 35.113168 -116.238139 57 11001ft 219kts
09-Jan-21 15:31 35.142112 -116.172504 57 11002ft 219kts
09-Jan-21 15:32 35.170888 -116.107100 57 11001ft 218kts
09-Jan-21 15:33 35.199941 -116.040934 57 11001ft 218kts
09-Jan-21 15:34 35.228797 -115.975085 57 11001ft 218kts
09-Jan-21 15:35 35.257728 -115.908936 57 11001ft 218kts
09-Jan-21 15:36 35.286723 -115.842511 57 11003ft 218kts
09-Jan-21 15:37 35.318077 -115.778233 44 11007ft 214kts
09-Jan-21 15:38 35.356574 -115.725994 43 10476ft 187kts
09-Jan-21 15:39 35.394162 -115.675917 43 10025ft 211kts
09-Jan-21 15:40 35.434270 -115.622181 43 10015ft 205kts
09-Jan-21 15:40 35.465930 -115.579837 43 10017ft 200kts
09-Jan-21 15:42 35.510166 -115.520603 43 10018ft 204kts
09-Jan-21 15:43 35.548525 -115.469165 43 10017ft 204kts
09-Jan-21 15:44 35.586985 -115.417511 43 10003ft 206kts
09-Jan-21 15:44 35.618026 -115.375740 43 9307ft 191kts
09-Jan-21 15:45 35.659264 -115.341902 12 8507ft 183kts
09-Jan-21 15:47 35.718113 -115.325488 12 7608ft 188kts
09-Jan-21 15:47 35.761511 -115.313366 12 6805ft 196kts
09-Jan-21 15:48 35.814603 -115.298472 12 6041ft 187kts
09-Jan-21 15:49 35.861899 -115.285139 11 6037ft 171kts
09-Jan-21 15:50 35.910238 -115.271444 12 6035ft 185kts
09-Jan-21 15:51 35.961714 -115.256869 13 6034ft 192kts
09-Jan-21 15:52 36.000832 -115.219081 41 5229ft 180kts
09-Jan-21 15:53 36.033131 -115.195520 20 3497ft 125kts
09-Jan-21 15:54 36.063528 -115.177303 21 2554ft 116kts
09-Jan-21 15:55 36.086243 -115.164153 26 2140ft 38kts
09-Jan-21 15:56 36.089452 -115.163738 291 2131ft 0kts
09-Jan-21 15:57 36.087881 -115.165590 205 2141ft 21kts

Navigation Log

Ident Type
Flight plan parsing failed, navigation log unavailable